Time;durP1;ratioP1;P1;durP2;ratioP2;P2;SDS_P1;SDS_P2;PMS_P1;PMS_P2;Temp;Humidity;BMP_temperature;BMP_pressure;BME280_temperature;BME280_humidity;BME280_pressure;Samples;Min_cycle;Max_cycle;Signal;HPM_P1;HPM_P2
2023/04/19 00:00:41;;;;;;;0.10;0.10;;;;;;;;;;5059388;28;20251;-74
2023/04/19 00:03:08;;;;;;;0.10;0.10;;;;;;;;;;5076603;28;20261;-74
2023/04/19 00:05:37;;;;;;;0.10;0.10;;;;;;;;;;5058834;28;20302;-74
2023/04/19 00:08:03;;;;;;;0.10;0.10;;;;;;;;;;5076929;28;20204;-74
2023/04/19 00:10:29;;;;;;;0.10;0.10;;;;;;;;;;5058058;28;20583;-74
2023/04/19 00:12:57;;;;;;;0.10;0.10;;;;;;;;;;5077835;28;20235;-73
2023/04/19 00:15:24;;;;;;;0.10;0.10;;;;;;;;;;5056855;28;20271;-74
2023/04/19 00:17:50;;;;;;;0.10;0.10;;;;;;;;;;5078282;28;20215;-74
2023/04/19 00:20:16;;;;;;;0.10;0.10;;;;;;;;;;5055903;28;20204;-74
2023/04/19 00:22:43;;;;;;;0.10;0.10;;;;;;;;;;5079311;28;20231;-74
2023/04/19 00:25:09;;;;;;;0.10;0.10;;;;;;;;;;5054772;28;20211;-74
2023/04/19 00:27:36;;;;;;;0.10;0.10;;;;;;;;;;5080016;28;20246;-74
2023/04/19 00:30:04;;;;;;;0.10;0.10;;;;;;;;;;5064744;28;20204;-74
2023/04/19 00:32:30;;;;;;;0.10;0.10;;;;;;;;;;5070081;28;20246;-74
2023/04/19 00:34:57;;;;;;;0.10;0.10;;;;;;;;;;5064989;28;20227;-74
2023/04/19 00:37:23;;;;;;;0.10;0.10;;;;;;;;;;5069856;28;20303;-74
2023/04/19 00:39:49;;;;;;;0.10;0.10;;;;;;;;;;5064863;28;20397;-74
2023/04/19 00:42:16;;;;;;;0.10;0.10;;;;;;;;;;5069802;28;20239;-74
2023/04/19 00:44:42;;;;;;;0.10;0.10;;;;;;;;;;5064680;28;20235;-74
2023/04/19 00:47:10;;;;;;;0.10;0.10;;;;;;;;;;5069686;28;20254;-74
2023/04/19 00:49:37;;;;;;;0.10;0.10;;;;;;;;;;5064440;28;20263;-74
2023/04/19 00:52:03;;;;;;;0.10;0.10;;;;;;;;;;5069030;28;20308;-74
2023/04/19 00:54:30;;;;;;;0.10;0.10;;;;;;;;;;5064618;28;20270;-74
2023/04/19 00:56:57;;;;;;;0.10;0.10;;;;;;;;;;5067951;28;20632;-74
2023/04/19 00:59:25;;;;;;;0.10;0.10;;;;;;;;;;5065785;28;20335;-74
2023/04/19 01:01:52;;;;;;;0.10;0.10;;;;;;;;;;5067431;28;20494;-74
2023/04/19 01:04:21;;;;;;;0.10;0.10;;;;;;;;;;5066060;28;20398;-74
2023/04/19 01:06:48;;;;;;;0.10;0.10;;;;;;;;;;5066076;28;20298;-74
2023/04/19 01:09:14;;;;;;;0.10;0.10;;;;;;;;;;5066506;28;20310;-74
2023/04/19 01:11:40;;;;;;;0.10;0.10;;;;;;;;;;5065792;28;20242;-74
2023/04/19 01:14:07;;;;;;;0.10;0.10;;;;;;;;;;5067436;28;20238;-74
2023/04/19 01:16:35;;;;;;;0.30;0.30;;;;;;;;;;5064868;28;20564;-74
2023/04/19 01:19:01;;;;;;;0.10;0.10;;;;;;;;;;5068296;28;20358;-74
2023/04/19 01:21:29;;;;;;;0.10;0.10;;;;;;;;;;5064090;28;20461;-74
2023/04/19 01:23:57;;;;;;;0.10;0.10;;;;;;;;;;5069072;28;20258;-74
2023/04/19 01:26:23;;;;;;;0.10;0.10;;;;;;;;;;5063288;28;20310;-74
2023/04/19 01:28:49;;;;;;;0.10;0.10;;;;;;;;;;5069317;28;20244;-74
2023/04/19 01:31:16;;;;;;;0.10;0.10;;;;;;;;;;5062328;28;20251;-74
2023/04/19 01:33:42;;;;;;;0.10;0.10;;;;;;;;;;5070520;28;20443;-74
2023/04/19 01:36:08;;;;;;;0.10;0.10;;;;;;;;;;5061217;28;20263;-74
2023/04/19 01:38:35;;;;;;;0.10;0.10;;;;;;;;;;5071114;28;20235;-74
2023/04/19 01:41:03;;;;;;;0.10;0.10;;;;;;;;;;5060340;28;20310;-74
2023/04/19 01:43:29;;;;;;;0.10;0.10;;;;;;;;;;5071991;28;20206;-74
2023/04/19 01:45:55;;;;;;;0.10;0.10;;;;;;;;;;5059379;28;20302;-74
2023/04/19 01:48:22;;;;;;;0.10;0.10;;;;;;;;;;5072724;28;20275;-74
2023/04/19 01:50:48;;;;;;;0.10;0.10;;;;;;;;;;5058534;28;20255;-74
2023/04/19 01:53:14;;;;;;;0.10;0.10;;;;;;;;;;5073617;28;20271;-74
2023/04/19 01:55:41;;;;;;;0.10;0.10;;;;;;;;;;5057822;28;20453;-74
2023/04/19 01:58:08;;;;;;;0.10;0.10;;;;;;;;;;5074817;28;20473;-74
2023/04/19 02:00:35;;;;;;;0.20;0.20;;;;;;;;;;5056941;28;20258;-74
2023/04/19 02:03:01;;;;;;;0.10;0.10;;;;;;;;;;5075606;28;20238;-74
2023/04/19 02:05:27;;;;;;;0.10;0.10;;;;;;;;;;5056090;28;20300;-74
2023/04/19 02:07:54;;;;;;;0.10;0.10;;;;;;;;;;5076617;28;20191;-74
2023/04/19 02:10:20;;;;;;;0.10;0.10;;;;;;;;;;5054971;28;20246;-74
2023/04/19 02:12:47;;;;;;;0.10;0.10;;;;;;;;;;5077201;28;20255;-74
2023/04/19 02:15:15;;;;;;;0.20;0.20;;;;;;;;;;5054121;28;20545;-74
2023/04/19 02:17:42;;;;;;;0.10;0.10;;;;;;;;;;5080428;28;20472;-74
2023/04/19 02:20:09;;;;;;;0.10;0.10;;;;;;;;;;5060958;28;20252;-74
2023/04/19 02:22:36;;;;;;;0.10;0.10;;;;;;;;;;5082296;28;20216;-74
2023/04/19 02:25:03;;;;;;;0.10;0.10;;;;;;;;;;5067516;28;20210;-74
2023/04/19 02:27:29;;;;;;;0.10;0.10;;;;;;;;;;5072482;28;20272;-74
2023/04/19 02:29:56;;;;;;;0.10;0.10;;;;;;;;;;5067508;28;20282;-74
2023/04/19 02:32:24;;;;;;;0.10;0.10;;;;;;;;;;5072353;28;20261;-74
2023/04/19 02:34:50;;;;;;;0.10;0.10;;;;;;;;;;5067296;28;20208;-74
2023/04/19 02:37:17;;;;;;;0.10;0.10;;;;;;;;;;5072209;28;20495;-74
2023/04/19 02:39:44;;;;;;;0.10;0.10;;;;;;;;;;5067170;28;20278;-74
2023/04/19 02:42:11;;;;;;;0.10;0.10;;;;;;;;;;5072174;28;20284;-74
2023/04/19 02:44:37;;;;;;;0.10;0.10;;;;;;;;;;5066612;28;20214;-74
2023/04/19 02:47:03;;;;;;;0.10;0.10;;;;;;;;;;5071619;28;20442;-74
2023/04/19 02:49:35;;;;;;;0.10;0.10;;;;;;;;;;5067293;28;20205;-74
2023/04/19 02:52:01;;;;;;;0.10;0.10;;;;;;;;;;5071125;28;20310;-74
2023/04/19 02:54:27;;;;;;;0.10;0.10;;;;;;;;;;5067460;28;20219;-74
2023/04/19 02:56:55;;;;;;;0.10;0.10;;;;;;;;;;5070069;28;20446;-74
2023/04/19 02:59:21;;;;;;;0.10;0.10;;;;;;;;;;5068212;28;20210;-74
2023/04/19 03:01:48;;;;;;;12.00;9.13;;;;;;;;;;5069517;28;20287;-74
2023/04/19 03:04:15;;;;;;;0.10;0.10;;;;;;;;;;5069229;28;20233;-74
2023/04/19 03:06:44;;;;;;;0.10;0.10;;;;;;;;;;5068316;28;20241;-73
2023/04/19 03:09:10;;;;;;;0.10;0.10;;;;;;;;;;5069309;28;20209;-74
2023/04/19 03:11:37;;;;;;;3.20;3.00;;;;;;;;;;5067512;28;20280;-74
2023/04/19 03:14:03;;;;;;;0.10;0.10;;;;;;;;;;5070501;28;20206;-74
2023/04/19 03:16:30;;;;;;;0.10;0.10;;;;;;;;;;5066607;28;20266;-76
2023/04/19 03:18:56;;;;;;;0.10;0.10;;;;;;;;;;5071150;28;20230;-74
2023/04/19 03:21:26;;;;;;;0.10;0.10;;;;;;;;;;5065646;28;20314;-74
2023/04/19 03:23:53;;;;;;;0.10;0.10;;;;;;;;;;5071571;28;20275;-74
2023/04/19 03:26:20;;;;;;;0.10;0.10;;;;;;;;;;5064980;28;20241;-74
2023/04/19 03:28:47;;;;;;;0.10;0.10;;;;;;;;;;5071515;28;20239;-74
2023/04/19 03:31:13;;;;;;;0.10;0.10;;;;;;;;;;5064324;28;20304;-73
2023/04/19 03:33:40;;;;;;;0.10;0.10;;;;;;;;;;5073109;28;20294;-74
2023/04/19 03:36:06;;;;;;;0.10;0.10;;;;;;;;;;5063304;28;20247;-74
2023/04/19 03:38:33;;;;;;;0.10;0.10;;;;;;;;;;5073541;28;20228;-74
2023/04/19 03:41:00;;;;;;;0.10;0.10;;;;;;;;;;5062192;28;20302;-74
2023/04/19 03:43:27;;;;;;;0.10;0.10;;;;;;;;;;5074611;28;20214;-74
2023/04/19 03:45:54;;;;;;;0.10;0.10;;;;;;;;;;5061369;28;20593;-74
2023/04/19 03:48:20;;;;;;;0.10;0.10;;;;;;;;;;5075397;28;20400;-74
2023/04/19 03:50:46;;;;;;;0.10;0.10;;;;;;;;;;5060517;28;20475;-74
2023/04/19 03:53:13;;;;;;;0.10;0.10;;;;;;;;;;5076297;28;20204;-74
2023/04/19 03:55:39;;;;;;;0.10;0.10;;;;;;;;;;5059582;28;20307;-74
2023/04/19 03:58:07;;;;;;;0.10;0.10;;;;;;;;;;5076916;28;20306;-74
2023/04/19 04:00:33;;;;;;;0.10;0.10;;;;;;;;;;5058520;28;20243;-74
2023/04/19 04:03:00;;;;;;;0.10;0.10;;;;;;;;;;5077502;28;20267;-74
2023/04/19 04:05:27;;;;;;;0.10;0.10;;;;;;;;;;5057115;28;20434;-74
2023/04/19 04:07:53;;;;;;;0.10;0.10;;;;;;;;;;5078784;28;20263;-74
2023/04/19 04:10:19;;;;;;;0.10;0.10;;;;;;;;;;5056777;28;20196;-74
2023/04/19 04:12:46;;;;;;;0.10;0.10;;;;;;;;;;5079212;28;20228;-74
2023/04/19 04:15:13;;;;;;;0.20;0.20;;;;;;;;;;5055809;28;20238;-75
2023/04/19 04:17:40;;;;;;;0.10;0.10;;;;;;;;;;5080166;28;20470;-74
2023/04/19 04:20:07;;;;;;;0.10;0.10;;;;;;;;;;5065405;28;20206;-74
2023/04/19 04:22:34;;;;;;;0.20;0.20;;;;;;;;;;5053595;28;20410;-74
2023/04/19 04:25:01;;;;;;;0.10;0.10;;;;;;;;;;5065336;28;20207;-74
2023/04/19 04:27:27;;;;;;;0.10;0.10;;;;;;;;;;5070097;28;20439;-74
2023/04/19 04:29:55;;;;;;;0.10;0.10;;;;;;;;;;5065223;28;20210;-74
2023/04/19 04:32:23;;;;;;;0.10;0.10;;;;;;;;;;5070081;28;20241;-74
2023/04/19 04:34:50;;;;;;;0.10;0.10;;;;;;;;;;5065161;28;20420;-74
2023/04/19 04:37:16;;;;;;;0.10;0.10;;;;;;;;;;5069903;28;20273;-74
2023/04/19 04:39:43;;;;;;;0.10;0.10;;;;;;;;;;5064524;28;20661;-74
2023/04/19 04:42:09;;;;;;;0.10;0.10;;;;;;;;;;5069302;28;20240;-74
2023/04/19 04:44:36;;;;;;;0.10;0.10;;;;;;;;;;5064854;28;20384;-75
2023/04/19 04:47:02;;;;;;;0.10;0.10;;;;;;;;;;5069001;28;20246;-74
2023/04/19 04:49:30;;;;;;;0.10;0.10;;;;;;;;;;5065320;28;20235;-74
2023/04/19 04:51:57;;;;;;;0.10;0.10;;;;;;;;;;5068348;28;20501;-74
2023/04/19 04:54:23;;;;;;;0.10;0.10;;;;;;;;;;5065455;28;20207;-74
2023/04/19 04:56:50;;;;;;;0.10;0.10;;;;;;;;;;5067261;28;20453;-74
2023/04/19 04:59:16;;;;;;;0.10;0.10;;;;;;;;;;5066416;28;20269;-74
2023/04/19 05:01:42;;;;;;;0.10;0.10;;;;;;;;;;5066348;28;20242;-74
2023/04/19 05:04:09;;;;;;;0.10;0.10;;;;;;;;;;5067621;28;20455;-74
2023/04/19 05:06:39;;;;;;;0.10;0.10;;;;;;;;;;5065366;28;20539;-75
2023/04/19 05:09:06;;;;;;;0.20;0.20;;;;;;;;;;5067887;28;20203;-74
2023/04/19 05:11:32;;;;;;;0.10;0.10;;;;;;;;;;5064786;28;20305;-74
2023/04/19 05:13:59;;;;;;;0.10;0.10;;;;;;;;;;5068479;28;20406;-74
2023/04/19 05:16:26;;;;;;;0.10;0.10;;;;;;;;;;5063922;28;20268;-74
2023/04/19 05:18:52;;;;;;;0.10;0.10;;;;;;;;;;5069075;28;20237;-75
2023/04/19 05:21:19;;;;;;;0.17;0.17;;;;;;;;;;5063031;28;20263;-75
2023/04/19 05:23:46;;;;;;;0.10;0.10;;;;;;;;;;5070073;28;20550;-75
2023/04/19 05:26:14;;;;;;;0.10;0.10;;;;;;;;;;5062189;28;20515;-75
2023/04/19 05:28:40;;;;;;;0.10;0.10;;;;;;;;;;5070789;28;20229;-75
2023/04/19 05:31:08;;;;;;;0.10;0.10;;;;;;;;;;5061177;28;20260;-75
2023/04/19 05:33:34;;;;;;;0.10;0.10;;;;;;;;;;5071306;28;20212;-75
2023/04/19 05:36:00;;;;;;;0.17;0.17;;;;;;;;;;5060470;28;20290;-75
2023/04/19 05:38:27;;;;;;;0.10;0.10;;;;;;;;;;5072065;28;20258;-75
2023/04/19 05:40:54;;;;;;;0.10;0.10;;;;;;;;;;5059283;28;20254;-75
2023/04/19 05:43:21;;;;;;;0.10;0.10;;;;;;;;;;5073228;28;20426;-75
2023/04/19 05:45:48;;;;;;;0.10;0.10;;;;;;;;;;5058416;28;20245;-75
2023/04/19 05:48:14;;;;;;;0.10;0.10;;;;;;;;;;5073770;28;20271;-75
2023/04/19 05:50:40;;;;;;;0.10;0.10;;;;;;;;;;5057825;28;20461;-75
2023/04/19 05:53:07;;;;;;;0.10;0.10;;;;;;;;;;5074618;28;20240;-75
2023/04/19 05:55:33;;;;;;;0.10;0.10;;;;;;;;;;5056398;28;20243;-75
2023/04/19 05:58:01;;;;;;;0.10;0.10;;;;;;;;;;5075716;28;20234;-75
2023/04/19 06:00:27;;;;;;;0.10;0.10;;;;;;;;;;5055777;28;20218;-75
2023/04/19 06:02:54;;;;;;;0.20;0.20;;;;;;;;;;5076981;28;20494;-76
2023/04/19 06:05:20;;;;;;;0.10;0.10;;;;;;;;;;5055205;28;20392;-75
2023/04/19 06:07:46;;;;;;;0.10;0.10;;;;;;;;;;5077450;28;20188;-76
2023/04/19 06:10:13;;;;;;;0.10;0.10;;;;;;;;;;5054166;28;20448;-75
2023/04/19 06:12:39;;;;;;;0.10;0.10;;;;;;;;;;5078423;28;20199;-75
2023/04/19 06:15:08;;;;;;;0.10;0.10;;;;;;;;;;5063580;28;20212;-75
2023/04/19 06:17:34;;;;;;;0.10;0.10;;;;;;;;;;5051813;28;20437;-75
2023/04/19 06:20:01;;;;;;;0.43;0.43;;;;;;;;;;5063646;28;20387;-75
2023/04/19 06:22:27;;;;;;;0.10;0.10;;;;;;;;;;5068495;28;20469;-76
2023/04/19 06:24:54;;;;;;;0.10;0.10;;;;;;;;;;5063630;28;20386;-76
2023/04/19 06:27:20;;;;;;;0.10;0.10;;;;;;;;;;5068594;28;20505;-75
2023/04/19 06:29:47;;;;;;;0.10;0.10;;;;;;;;;;5063415;28;20207;-77
2023/04/19 06:32:14;;;;;;;0.10;0.10;;;;;;;;;;5068576;28;20244;-76
2023/04/19 06:34:41;;;;;;;0.10;0.10;;;;;;;;;;5063260;28;20500;-78
2023/04/19 06:37:07;;;;;;;0.10;0.10;;;;;;;;;;5068466;28;20277;-75
2023/04/19 06:39:34;;;;;;;0.10;0.10;;;;;;;;;;5063275;28;20219;-76
2023/04/19 06:42:01;;;;;;;0.10;0.10;;;;;;;;;;5067334;28;20243;-76
2023/04/19 06:44:27;;;;;;;0.10;0.10;;;;;;;;;;5064104;28;20208;-77
2023/04/19 06:46:53;;;;;;;0.10;0.10;;;;;;;;;;5066404;28;20438;-75
2023/04/19 06:49:21;;;;;;;0.10;0.10;;;;;;;;;;5064996;28;20437;-76
2023/04/19 06:51:48;;;;;;;0.10;0.10;;;;;;;;;;5065605;28;20241;-77
2023/04/19 06:54:15;;;;;;;0.10;0.10;;;;;;;;;;5065664;28;20204;-75
2023/04/19 06:56:44;;;;;;;0.10;0.10;;;;;;;;;;5064689;28;20253;-74
2023/04/19 06:59:10;;;;;;;0.20;0.20;;;;;;;;;;5065947;28;20230;-74
2023/04/19 07:01:37;;;;;;;0.10;0.10;;;;;;;;;;5064273;28;20270;-75
2023/04/19 07:04:03;;;;;;;0.10;0.10;;;;;;;;;;5067982;28;20526;-76
2023/04/19 07:06:31;;;;;;;0.10;0.10;;;;;;;;;;5066893;28;20258;-76
2023/04/19 07:08:58;;;;;;;0.10;0.10;;;;;;;;;;5070905;28;20207;-76
2023/04/19 07:11:24;;;;;;;0.20;0.20;;;;;;;;;;5066222;28;20242;-76
2023/04/19 07:13:51;;;;;;;0.10;0.10;;;;;;;;;;5071892;28;20236;-76
2023/04/19 07:16:17;;;;;;;0.10;0.10;;;;;;;;;;5065177;28;20423;-76
2023/04/19 07:18:43;;;;;;;0.20;0.20;;;;;;;;;;5072861;28;20234;-76
2023/04/19 07:21:10;;;;;;;0.10;0.10;;;;;;;;;;5064202;28;20306;-76
2023/04/19 07:23:38;;;;;;;0.10;0.10;;;;;;;;;;5073361;28;20271;-76
2023/04/19 07:26:04;;;;;;;0.20;0.20;;;;;;;;;;5063417;28;20302;-75
2023/04/19 07:28:31;;;;;;;0.10;0.10;;;;;;;;;;5074363;28;20200;-76
2023/04/19 07:30:57;;;;;;;0.10;0.10;;;;;;;;;;5062397;28;20243;-76
2023/04/19 07:33:24;;;;;;;0.10;0.10;;;;;;;;;;5074748;28;20204;-76
2023/04/19 07:35:51;;;;;;;0.10;0.10;;;;;;;;;;5061487;28;20252;-76
2023/04/19 07:38:18;;;;;;;0.10;0.10;;;;;;;;;;5075905;28;20224;-76
2023/04/19 07:40:45;;;;;;;0.20;0.20;;;;;;;;;;5059730;28;20510;-76
2023/04/19 07:43:12;;;;;;;0.10;0.10;;;;;;;;;;5077687;28;20194;-76
2023/04/19 07:45:39;;;;;;;0.10;0.10;;;;;;;;;;5059514;28;20315;-76
2023/04/19 07:48:05;;;;;;;0.10;0.10;;;;;;;;;;5077297;28;20250;-75
2023/04/19 07:50:32;;;;;;;0.10;0.10;;;;;;;;;;5058935;28;20302;-76
2023/04/19 07:52:58;;;;;;;0.10;0.10;;;;;;;;;;5077826;28;20245;-76
2023/04/19 07:55:25;;;;;;;0.10;0.10;;;;;;;;;;5057761;28;20235;-76
2023/04/19 07:57:52;;;;;;;0.10;0.10;;;;;;;;;;5078630;28;20233;-76
2023/04/19 08:00:20;;;;;;;0.10;0.10;;;;;;;;;;5056612;28;20384;-76
2023/04/19 08:02:48;;;;;;;0.10;0.10;;;;;;;;;;5079482;28;20486;-76
2023/04/19 08:05:15;;;;;;;0.10;0.10;;;;;;;;;;5056302;28;20230;-76
2023/04/19 08:07:42;;;;;;;0.20;0.20;;;;;;;;;;5079985;28;20199;-76
2023/04/19 08:10:09;;;;;;;0.10;0.10;;;;;;;;;;5057547;28;20248;-76
2023/04/19 08:12:36;;;;;;;0.10;0.10;;;;;;;;;;5080283;28;20246;-76
2023/04/19 08:15:04;;;;;;;0.10;0.10;;;;;;;;;;5065250;28;20278;-76
2023/04/19 08:17:30;;;;;;;0.10;0.10;;;;;;;;;;5070448;28;20307;-76
2023/04/19 08:19:57;;;;;;;0.10;0.10;;;;;;;;;;5065322;28;20220;-76
2023/04/19 08:22:23;;;;;;;0.10;0.10;;;;;;;;;;5070330;28;20239;-76
2023/04/19 08:24:50;;;;;;;0.10;0.10;;;;;;;;;;5065255;28;20244;-77
2023/04/19 08:27:17;;;;;;;0.10;0.10;;;;;;;;;;5070166;28;20249;-76
2023/04/19 08:29:43;;;;;;;0.10;0.10;;;;;;;;;;5065158;28;20239;-75
2023/04/19 08:32:11;;;;;;;0.10;0.10;;;;;;;;;;5070012;28;20288;-73
2023/04/19 08:34:38;;;;;;;0.10;0.10;;;;;;;;;;5064897;28;20204;-75
2023/04/19 08:37:06;;;;;;;0.10;0.10;;;;;;;;;;5069545;28;20297;-75
2023/04/19 08:39:32;;;;;;;0.10;0.10;;;;;;;;;;5064919;28;20255;-75
2023/04/19 08:42:02;;;;;;;0.10;0.10;;;;;;;;;;5068856;28;20422;-74
2023/04/19 08:44:30;;;;;;;0.10;0.10;;;;;;;;;;5065430;28;20266;-75
2023/04/19 08:46:57;;;;;;;0.10;0.10;;;;;;;;;;5068202;28;20430;-75
2023/04/19 08:49:25;;;;;;;0.10;0.10;;;;;;;;;;5066122;28;20382;-75
2023/04/19 08:51:52;;;;;;;0.10;0.10;;;;;;;;;;5067656;28;20262;-74
2023/04/19 08:54:19;;;;;;;0.10;0.10;;;;;;;;;;5066459;28;20271;-74
2023/04/19 08:56:46;;;;;;;0.10;0.10;;;;;;;;;;5066720;28;20303;-75
2023/04/19 08:59:13;;;;;;;0.10;0.10;;;;;;;;;;5067264;28;20226;-74
2023/04/19 09:01:39;;;;;;;0.10;0.10;;;;;;;;;;5065819;28;20250;-74
2023/04/19 09:04:06;;;;;;;0.10;0.10;;;;;;;;;;5067928;28;20220;-74
2023/04/19 09:06:36;;;;;;;0.10;0.10;;;;;;;;;;5064778;28;20243;-75
2023/04/19 09:09:18;;;;;;;0.10;0.10;;;;;;;;;;5068236;28;20214;-75
2023/04/19 09:11:44;;;;;;;0.00;0.00;;;;;;;;;;5064566;28;20516;-75
2023/04/19 09:14:11;;;;;;;0.00;0.00;;;;;;;;;;5067129;28;20234;-74
2023/04/19 09:16:38;;;;;;;0.00;0.00;;;;;;;;;;5065245;28;20306;-73
2023/04/19 09:19:05;;;;;;;0.10;0.10;;;;;;;;;;5067782;28;20232;-72
2023/04/19 09:21:32;;;;;;;0.00;0.00;;;;;;;;;;5064652;28;20280;-72
2023/04/19 09:24:00;;;;;;;0.00;0.00;;;;;;;;;;5068602;28;20241;-75
2023/04/19 09:26:28;;;;;;;0.03;0.03;;;;;;;;;;5063253;28;20242;-73
2023/04/19 09:28:59;;;;;;;0.00;0.00;;;;;;;;;;5068995;28;20423;-74
2023/04/19 09:31:26;;;;;;;0.00;0.00;;;;;;;;;;5063671;28;20243;-73
2023/04/19 09:33:54;;;;;;;0.00;0.00;;;;;;;;;;5069044;28;20204;-74
2023/04/19 09:36:27;;;;;;;0.00;0.00;;;;;;;;;;5062797;28;20307;-73
2023/04/19 09:38:53;;;;;;;0.00;0.00;;;;;;;;;;5068992;28;20291;-74
2023/04/19 09:41:21;;;;;;;0.00;0.00;;;;;;;;;;5062633;28;20302;-74
2023/04/19 09:43:47;;;;;;;0.00;0.00;;;;;;;;;;5069990;28;20208;-74
2023/04/19 09:46:30;;;;;;;0.10;0.10;;;;;;;;;;5061722;28;20239;-73
2023/04/19 09:49:15;;;;;;;0.03;0.03;;;;;;;;;;5068447;28;20200;-74
2023/04/19 09:51:41;;;;;;;0.10;0.10;;;;;;;;;;5065321;28;20243;-74
2023/04/19 09:54:08;;;;;;;0.08;0.08;;;;;;;;;;5067211;28;20231;-74
2023/04/19 09:56:36;;;;;;;0.00;0.00;;;;;;;;;;5064338;28;20254;-74
2023/04/19 09:59:03;;;;;;;0.00;0.00;;;;;;;;;;5067830;28;20620;-74
2023/04/19 10:01:30;;;;;;;0.00;0.00;;;;;;;;;;5063816;28;20262;-74
2023/04/19 10:03:57;;;;;;;0.00;0.00;;;;;;;;;;5068398;28;20208;-74
2023/04/19 10:06:23;;;;;;;0.00;0.00;;;;;;;;;;5062890;28;20310;-73
2023/04/19 10:08:50;;;;;;;0.00;0.00;;;;;;;;;;5068960;28;20250;-74
2023/04/19 10:11:17;;;;;;;0.00;0.00;;;;;;;;;;5062166;28;20239;-74
2023/04/19 10:13:46;;;;;;;0.00;0.00;;;;;;;;;;5069687;28;20275;-73
2023/04/19 10:16:13;;;;;;;0.00;0.00;;;;;;;;;;5061507;28;20258;-74
2023/04/19 10:18:39;;;;;;;0.00;0.00;;;;;;;;;;5070183;28;21164;-74
2023/04/19 10:21:07;;;;;;;0.00;0.00;;;;;;;;;;5060588;28;20266;-74
2023/04/19 10:23:34;;;;;;;0.00;0.00;;;;;;;;;;5071148;28;20204;-74
2023/04/19 10:26:01;;;;;;;0.00;0.00;;;;;;;;;;5059820;28;20251;-75
2023/04/19 10:28:28;;;;;;;0.00;0.00;;;;;;;;;;5071840;28;20204;-75
2023/04/19 10:30:59;;;;;;;0.00;0.00;;;;;;;;;;5058233;28;20443;-81
2023/04/19 10:33:27;;;;;;;0.00;0.00;;;;;;;;;;5074420;28;20242;-70
2023/04/19 10:35:55;;;;;;;0.00;0.00;;;;;;;;;;5059077;28;20239;-73
2023/04/19 10:38:35;;;;;;;0.00;0.00;;;;;;;;;;5073895;28;20275;-73
2023/04/19 10:41:02;;;;;;;0.10;0.10;;;;;;;;;;5063712;28;20329;-73
2023/04/19 10:43:29;;;;;;;0.00;0.00;;;;;;;;;;5075213;28;20200;-74
2023/04/19 10:46:01;;;;;;;0.00;0.00;;;;;;;;;;5062791;28;20251;-72
2023/04/19 10:48:36;;;;;;;0.00;0.00;;;;;;;;;;5075672;28;20250;-72
2023/04/19 10:51:03;;;;;;;0.00;0.00;;;;;;;;;;5063837;28;20250;-72
2023/04/19 10:53:46;;;;;;;0.00;0.00;;;;;;;;;;5074837;28;20203;-66
2023/04/19 10:56:12;;;;;;;0.00;0.00;;;;;;;;;;5064770;28;20254;-66
2023/04/19 10:58:57;;;;;;;0.00;0.00;;;;;;;;;;5073809;28;20236;-66
2023/04/19 11:01:33;;;;;;;0.00;0.00;;;;;;;;;;5066386;28;20246;-67
2023/04/19 11:04:00;;;;;;;0.08;0.08;;;;;;;;;;5071234;28;20279;-66
2023/04/19 11:06:27;;;;;;;0.00;0.00;;;;;;;;;;5066502;28;20262;-74
2023/04/19 11:08:53;;;;;;;0.00;0.00;;;;;;;;;;5071654;28;20296;-74
2023/04/19 11:11:20;;;;;;;0.00;0.00;;;;;;;;;;5065693;28;20367;-75
2023/04/19 11:13:47;;;;;;;0.00;0.00;;;;;;;;;;5072700;28;20235;-74
2023/04/19 11:16:13;;;;;;;0.10;0.10;;;;;;;;;;5064535;28;20246;-74
2023/04/19 11:18:41;;;;;;;0.00;0.00;;;;;;;;;;5073033;28;20256;-75
2023/04/19 11:21:07;;;;;;;0.00;0.00;;;;;;;;;;5063668;28;20242;-74
2023/04/19 11:23:33;;;;;;;0.00;0.00;;;;;;;;;;5073735;28;20210;-75
2023/04/19 11:26:00;;;;;;;0.00;0.00;;;;;;;;;;5062699;28;20243;-75
2023/04/19 11:28:26;;;;;;;0.00;0.00;;;;;;;;;;5074921;28;20226;-75
2023/04/19 11:30:53;;;;;;;0.00;0.00;;;;;;;;;;5061533;28;20242;-75
2023/04/19 11:33:23;;;;;;;0.17;0.17;;;;;;;;;;5075625;28;20456;-75
2023/04/19 11:35:51;;;;;;;0.10;0.10;;;;;;;;;;5061280;28;20307;-74
2023/04/19 11:38:17;;;;;;;0.10;0.10;;;;;;;;;;5075685;28;20207;-74
2023/04/19 11:40:44;;;;;;;0.00;0.00;;;;;;;;;;5060538;28;20298;-75
2023/04/19 11:43:10;;;;;;;0.00;0.00;;;;;;;;;;5076798;28;20278;-75
2023/04/19 11:45:38;;;;;;;0.00;0.00;;;;;;;;;;5059405;28;20304;-75
2023/04/19 11:48:05;;;;;;;0.05;0.05;;;;;;;;;;5077503;28;20259;-75
2023/04/19 11:50:33;;;;;;;0.10;0.10;;;;;;;;;;5057807;28;20245;-74
2023/04/19 11:53:09;;;;;;;0.00;0.00;;;;;;;;;;5077977;28;20487;-75
2023/04/19 11:55:36;;;;;;;0.10;0.10;;;;;;;;;;5059356;28;20510;-75
2023/04/19 11:58:02;;;;;;;0.10;0.10;;;;;;;;;;5076941;28;20240;-76
2023/04/19 12:00:30;;;;;;;0.10;0.10;;;;;;;;;;5057813;28;20254;-76
2023/04/19 12:02:56;;;;;;;0.00;0.00;;;;;;;;;;5078700;28;20222;-76
2023/04/19 12:05:23;;;;;;;0.00;0.00;;;;;;;;;;5057478;28;20236;-76
2023/04/19 12:08:05;;;;;;;0.10;0.10;;;;;;;;;;5078813;28;20219;-76
2023/04/19 12:10:32;;;;;;;0.05;0.05;;;;;;;;;;5058479;28;20246;-76
2023/04/19 12:12:58;;;;;;;0.10;0.10;;;;;;;;;;5077848;28;20418;-76
2023/04/19 12:15:39;;;;;;;0.05;0.05;;;;;;;;;;5057139;28;20238;-75
2023/04/19 12:18:06;;;;;;;0.10;0.10;;;;;;;;;;5076325;28;20275;-76
2023/04/19 12:20:33;;;;;;;0.10;0.10;;;;;;;;;;5058242;28;20493;-75
2023/04/19 12:22:59;;;;;;;0.10;0.10;;;;;;;;;;5077171;28;20206;-75
2023/04/19 12:25:29;;;;;;;0.00;0.00;;;;;;;;;;5057326;28;20209;-75
2023/04/19 12:27:56;;;;;;;0.10;0.10;;;;;;;;;;5077914;28;20194;-76
2023/04/19 12:30:22;;;;;;;0.10;0.10;;;;;;;;;;5056839;28;20386;-75
2023/04/19 12:32:50;;;;;;;0.05;0.05;;;;;;;;;;5078693;28;20230;-75
2023/04/19 12:35:16;;;;;;;0.10;0.10;;;;;;;;;;5055998;28;20205;-75
2023/04/19 12:37:43;;;;;;;0.10;0.10;;;;;;;;;;5079393;28;20263;-75
2023/04/19 12:40:10;;;;;;;0.00;0.00;;;;;;;;;;5055190;28;20256;-75
2023/04/19 12:42:37;;;;;;;0.10;0.10;;;;;;;;;;5079984;28;20224;-75
2023/04/19 12:45:04;;;;;;;0.00;0.00;;;;;;;;;;5064749;28;20215;-76
2023/04/19 12:47:30;;;;;;;0.00;0.00;;;;;;;;;;5069853;28;20495;-76
2023/04/19 12:49:57;;;;;;;0.10;0.10;;;;;;;;;;5064935;28;20223;-75
2023/04/19 12:52:23;;;;;;;0.10;0.10;;;;;;;;;;5069839;28;20341;-77
2023/04/19 12:54:50;;;;;;;0.10;0.10;;;;;;;;;;5064762;28;20277;-75
2023/04/19 12:57:16;;;;;;;0.10;0.10;;;;;;;;;;5069645;28;20255;-75
2023/04/19 12:59:44;;;;;;;0.10;0.10;;;;;;;;;;5064546;28;20262;-76
2023/04/19 13:02:11;;;;;;;0.10;0.10;;;;;;;;;;5068745;28;20239;-76
2023/04/19 13:04:37;;;;;;;0.10;0.10;;;;;;;;;;5064585;28;20274;-78
2023/04/19 13:07:03;;;;;;;0.10;0.10;;;;;;;;;;5068986;28;20243;-74
2023/04/19 13:09:30;;;;;;;0.05;0.05;;;;;;;;;;5064950;28;20207;-76
2023/04/19 13:11:56;;;;;;;0.10;0.10;;;;;;;;;;5067813;28;20239;-75
2023/04/19 13:14:23;;;;;;;0.10;0.10;;;;;;;;;;5065726;28;20237;-73
2023/04/19 13:16:50;;;;;;;0.00;0.00;;;;;;;;;;5066739;28;20251;-76
2023/04/19 13:19:17;;;;;;;0.00;0.00;;;;;;;;;;5066304;28;20444;-72
2023/04/19 13:21:43;;;;;;;0.10;0.10;;;;;;;;;;5066195;28;20241;-72
2023/04/19 13:24:10;;;;;;;0.00;0.00;;;;;;;;;;5067038;28;20213;-72
2023/04/19 13:26:37;;;;;;;0.10;0.10;;;;;;;;;;5065253;28;20249;-73
2023/04/19 13:29:03;;;;;;;0.10;0.10;;;;;;;;;;5067888;28;20211;-72
2023/04/19 13:31:30;;;;;;;0.05;0.05;;;;;;;;;;5064228;28;20263;-72
2023/04/19 13:33:59;;;;;;;0.00;0.00;;;;;;;;;;5068635;28;20564;-72
2023/04/19 13:36:26;;;;;;;0.10;0.10;;;;;;;;;;5063714;28;20236;-72
2023/04/19 13:38:53;;;;;;;0.10;0.10;;;;;;;;;;5068963;28;20238;-72
2023/04/19 13:41:19;;;;;;;0.10;0.10;;;;;;;;;;5062717;28;20457;-70
2023/04/19 13:43:46;;;;;;;0.10;0.10;;;;;;;;;;5069857;28;20211;-71
2023/04/19 13:46:12;;;;;;;0.10;0.10;;;;;;;;;;5061628;28;20490;-71
2023/04/19 13:48:39;;;;;;;0.03;0.03;;;;;;;;;;5070883;28;20237;-72
2023/04/19 13:51:07;;;;;;;0.10;0.10;;;;;;;;;;5060971;28;20303;-72
2023/04/19 13:53:33;;;;;;;0.10;0.10;;;;;;;;;;5071624;28;20461;-70
2023/04/19 13:55:59;;;;;;;0.10;0.10;;;;;;;;;;5060072;28;20300;-70
2023/04/19 13:58:26;;;;;;;0.10;0.10;;;;;;;;;;5072365;28;20225;-71
2023/04/19 14:00:53;;;;;;;0.10;0.10;;;;;;;;;;5058870;28;20299;-78
2023/04/19 14:03:19;;;;;;;0.10;0.10;;;;;;;;;;5073127;28;20207;-75
2023/04/19 14:05:45;;;;;;;0.08;0.08;;;;;;;;;;5058180;28;20241;-74
2023/04/19 14:08:13;;;;;;;0.10;0.10;;;;;;;;;;5074285;28;20210;-74
2023/04/19 14:10:40;;;;;;;0.10;0.10;;;;;;;;;;5057274;28;20255;-75
2023/04/19 14:13:06;;;;;;;0.10;0.10;;;;;;;;;;5076321;28;20479;-74
2023/04/19 14:15:33;;;;;;;0.10;0.10;;;;;;;;;;5060585;28;20242;-74
2023/04/19 14:17:59;;;;;;;0.10;0.10;;;;;;;;;;5080078;28;20195;-74
2023/04/19 14:20:26;;;;;;;0.07;0.07;;;;;;;;;;5059615;28;20294;-74
2023/04/19 14:22:54;;;;;;;0.10;0.10;;;;;;;;;;5080424;28;20196;-73
2023/04/19 14:25:21;;;;;;;0.00;0.00;;;;;;;;;;5058579;28;20242;-73
2023/04/19 14:27:48;;;;;;;0.10;0.10;;;;;;;;;;5081105;28;20234;-73
2023/04/19 14:30:14;;;;;;;0.10;0.10;;;;;;;;;;5058083;28;20267;-74
2023/04/19 14:32:41;;;;;;;0.00;0.00;;;;;;;;;;5082105;28;20246;-75
2023/04/19 14:35:10;;;;;;;0.10;0.10;;;;;;;;;;5066072;28;20204;-76
2023/04/19 14:37:36;;;;;;;0.00;0.00;;;;;;;;;;5082412;28;20215;-76
2023/04/19 14:40:03;;;;;;;0.10;0.10;;;;;;;;;;5066976;28;20297;-75
2023/04/19 14:42:30;;;;;;;0.10;0.10;;;;;;;;;;5072262;28;20302;-75